createdAt,value
2017-06-04T00:00:39.791Z,0
2017-06-04T00:01:54.405Z,0
2017-06-04T00:02:40.117Z,0
2017-06-04T00:03:40.141Z,0
2017-06-04T00:04:40.170Z,0
2017-06-04T00:05:39.892Z,0
2017-06-04T00:06:40.218Z,0
2017-06-04T00:08:40.276Z,0
2017-06-04T00:09:40.296Z,0
2017-06-04T00:10:40.017Z,0
2017-06-04T00:11:40.348Z,0
2017-06-04T00:12:40.068Z,0
2017-06-04T00:13:40.094Z,0
2017-06-04T00:14:40.125Z,0
2017-06-04T00:15:40.449Z,0
2017-06-04T00:16:40.475Z,0
2017-06-04T00:17:40.532Z,0
2017-06-04T00:18:40.527Z,0
2017-06-04T00:19:40.249Z,0
2017-06-04T00:20:40.278Z,0
2017-06-04T00:22:40.376Z,0
2017-06-04T00:23:40.045Z,0
2017-06-04T00:24:55.297Z,0
2017-06-04T00:25:40.451Z,0
2017-06-04T00:26:40.429Z,0
2017-06-04T00:27:40.452Z,0
2017-06-04T00:28:40.782Z,0
2017-06-04T00:29:40.808Z,0
2017-06-04T00:30:40.842Z,0
2017-06-04T00:31:40.862Z,0
2017-06-04T00:32:40.902Z,0
2017-06-04T00:33:40.924Z,0
2017-06-04T00:34:40.949Z,0
2017-06-04T00:35:40.959Z,0
2017-06-04T00:36:40.987Z,0
2017-06-04T00:37:41.018Z,0
2017-06-04T00:39:40.460Z,0
2017-06-04T00:40:55.405Z,0
2017-06-04T00:42:41.138Z,0
2017-06-04T00:43:41.163Z,0
2017-06-04T00:44:41.194Z,0
2017-06-04T00:45:41.217Z,0
2017-06-04T00:46:41.243Z,0
2017-06-04T00:47:41.266Z,0
2017-06-04T00:48:41.291Z,0
2017-06-04T00:49:41.318Z,0
2017-06-04T00:50:41.359Z,0
2017-06-04T00:51:41.372Z,0
2017-06-04T00:52:41.091Z,0
2017-06-04T00:53:41.419Z,0
2017-06-04T00:54:41.176Z,0
2017-06-04T00:55:41.469Z,0
2017-06-04T00:56:56.161Z,0
2017-06-04T00:57:41.521Z,0
2017-06-04T00:58:41.551Z,0
2017-06-04T00:59:41.579Z,0
2017-06-04T01:00:41.596Z,0
2017-06-04T01:01:41.622Z,0
2017-06-04T01:02:56.269Z,0
2017-06-04T01:03:41.729Z,0
2017-06-04T01:04:41.702Z,0
2017-06-04T01:05:41.727Z,0
2017-06-04T01:06:56.367Z,0
2017-06-04T01:07:41.794Z,0
2017-06-04T01:08:56.418Z,0
2017-06-04T01:09:41.527Z,0
2017-06-04T01:10:41.549Z,0
2017-06-04T01:11:41.574Z,0
2017-06-04T01:12:56.519Z,0
2017-06-04T01:13:41.927Z,0
2017-06-04T01:14:41.952Z,0
2017-06-04T01:15:41.977Z,0
2017-06-04T01:16:42.008Z,0
2017-06-04T01:17:41.726Z,0
2017-06-04T01:18:42.056Z,0
2017-06-04T01:19:42.129Z,0
2017-06-04T01:20:42.112Z,0
2017-06-04T01:21:42.129Z,0
2017-06-04T01:22:56.772Z,0
2017-06-04T01:23:42.181Z,0
2017-06-04T01:24:56.825Z,0
2017-06-04T01:26:42.259Z,0
2017-06-04T01:27:56.900Z,0
2017-06-04T01:28:42.310Z,0
2017-06-04T01:29:42.332Z,0
2017-06-04T01:30:56.982Z,0
2017-06-04T01:31:42.382Z,0
2017-06-04T01:32:42.105Z,0
2017-06-04T01:33:42.437Z,0
2017-06-04T01:34:42.460Z,0
2017-06-04T01:35:42.485Z,0
2017-06-04T01:36:42.519Z,0
2017-06-04T01:37:42.535Z,0
2017-06-04T01:38:42.562Z,0
2017-06-04T01:39:42.587Z,0
2017-06-04T01:41:42.642Z,0
2017-06-04T01:42:42.660Z,0
2017-06-04T01:43:42.691Z,0
2017-06-04T01:44:42.715Z,0
2017-06-04T01:45:42.742Z,0
2017-06-04T01:46:42.764Z,0
2017-06-04T01:47:42.787Z,0
2017-06-04T01:48:42.866Z,0
2017-06-04T01:49:42.539Z,0
2017-06-04T01:50:42.861Z,0
2017-06-04T01:51:42.890Z,0
2017-06-04T01:52:42.913Z,0
2017-06-04T01:53:57.556Z,0
2017-06-04T01:54:42.968Z,0
2017-06-04T01:55:42.996Z,0
2017-06-04T01:56:43.017Z,0
2017-06-04T01:57:43.039Z,0
2017-06-04T01:58:42.765Z,0
2017-06-04T01:59:57.707Z,0
2017-06-04T02:00:43.117Z,0
2017-06-04T02:01:43.144Z,0
2017-06-04T02:02:42.867Z,0
2017-06-04T02:03:42.888Z,0
2017-06-04T02:04:42.914Z,0
2017-06-04T02:05:43.243Z,0
2017-06-04T02:06:43.265Z,0
2017-06-04T02:07:42.987Z,0
2017-06-04T02:08:43.061Z,0
2017-06-04T02:09:57.961Z,0
2017-06-04T02:10:57.683Z,0
2017-06-04T02:11:43.090Z,0
2017-06-04T02:12:43.116Z,0
2017-06-04T02:13:43.147Z,0
2017-06-04T02:14:43.170Z,4
2017-06-04T02:15:58.113Z,4
2017-06-04T02:17:43.548Z,0
2017-06-04T02:18:43.269Z,4
2017-06-04T02:19:43.595Z,4
2017-06-04T02:20:43.623Z,4
2017-06-04T02:21:43.646Z,4
2017-06-04T02:22:43.722Z,8
2017-06-04T02:23:43.698Z,8
2017-06-04T02:24:43.419Z,4
2017-06-04T02:25:43.444Z,4
2017-06-04T02:26:43.469Z,4
2017-06-04T02:27:58.418Z,8
2017-06-04T02:29:43.848Z,8
2017-06-04T02:30:43.874Z,8
2017-06-04T02:31:58.522Z,12
2017-06-04T02:32:43.622Z,8
2017-06-04T02:33:43.951Z,12
2017-06-04T02:34:43.674Z,12
2017-06-04T02:35:44.012Z,16
2017-06-04T02:36:44.031Z,16
2017-06-04T02:37:44.355Z,20
2017-06-04T02:38:44.089Z,20
2017-06-04T02:39:43.800Z,20
2017-06-04T02:40:44.130Z,28
2017-06-04T02:41:58.770Z,28
2017-06-04T02:42:44.176Z,28
2017-06-04T02:43:58.822Z,32
2017-06-04T02:44:58.847Z,36
2017-06-04T02:45:44.254Z,36
2017-06-04T02:47:58.921Z,44
2017-06-04T02:48:43.723Z,48
2017-06-04T02:49:43.750Z,52
2017-06-04T02:50:44.382Z,60
2017-06-04T02:51:44.409Z,68
2017-06-04T02:52:44.430Z,76
2017-06-04T02:53:44.454Z,88
2017-06-04T02:54:44.175Z,96
2017-06-04T02:55:59.180Z,108
2017-06-04T02:56:44.534Z,116
2017-06-04T02:57:59.174Z,128
2017-06-04T03:00:59.250Z,164
2017-06-04T03:01:44.659Z,172
2017-06-04T03:02:59.301Z,180
2017-06-04T03:03:44.708Z,184
2017-06-04T03:04:44.733Z,200
2017-06-04T03:05:44.456Z,216
2017-06-04T03:06:44.482Z,232
2017-06-04T03:07:44.811Z,248
2017-06-04T03:08:44.833Z,260
2017-06-04T03:10:59.505Z,288
2017-06-04T03:11:44.924Z,304
2017-06-04T03:12:59.553Z,320
2017-06-04T03:13:44.656Z,336
2017-06-04T03:16:45.039Z,388
2017-06-04T03:17:45.063Z,408
2017-06-04T03:18:45.085Z,424
2017-06-04T03:19:45.110Z,444
2017-06-04T03:20:45.139Z,456
2017-06-04T03:21:45.163Z,464
2017-06-04T03:22:45.187Z,472
2017-06-04T03:23:45.211Z,472
2017-06-04T03:24:45.240Z,468
2017-06-04T03:25:44.963Z,464
2017-06-04T03:26:44.985Z,460
2017-06-04T03:27:59.934Z,460
2017-06-04T03:28:59.961Z,460
2017-06-04T03:29:59.986Z,468
2017-06-04T03:30:45.393Z,468
2017-06-04T03:32:00.033Z,476
2017-06-04T03:32:45.445Z,484
2017-06-04T03:35:00.109Z,504
2017-06-04T03:36:45.545Z,516
2017-06-04T03:37:45.616Z,520
2017-06-04T03:38:45.593Z,528
2017-06-04T03:39:45.618Z,528
2017-06-04T03:40:45.647Z,536
2017-06-04T03:41:45.670Z,544
2017-06-04T03:42:45.693Z,552
2017-06-04T03:43:45.717Z,564
2017-06-04T03:45:00.361Z,584
2017-06-04T03:45:45.773Z,600
2017-06-04T03:47:00.419Z,620
2017-06-04T03:47:45.821Z,628
2017-06-04T03:48:45.540Z,636
2017-06-04T03:51:00.517Z,640
2017-06-04T03:51:45.923Z,644
2017-06-04T03:52:45.946Z,656
2017-06-04T03:53:46.013Z,668
2017-06-04T03:54:46.001Z,688
2017-06-04T03:55:46.020Z,716
2017-06-04T03:56:46.050Z,748
2017-06-04T03:57:45.769Z,776
2017-06-04T03:59:00.413Z,808
2017-06-04T04:00:00.742Z,828
2017-06-04T04:00:46.148Z,852
2017-06-04T04:01:46.177Z,884
2017-06-04T04:02:46.201Z,928
2017-06-04T04:03:45.921Z,968
2017-06-04T04:07:00.920Z,1044
2017-06-04T04:07:46.329Z,1040
2017-06-04T04:08:46.353Z,1032
2017-06-04T04:09:46.124Z,1036
2017-06-04T04:11:01.025Z,1056
2017-06-04T04:11:46.429Z,1072
2017-06-04T04:12:46.457Z,1100
2017-06-04T04:13:46.476Z,1112
2017-06-04T04:14:46.504Z,1128
2017-06-04T04:15:46.529Z,1136
2017-06-04T04:16:46.555Z,1136
2017-06-04T04:18:01.195Z,1128
2017-06-04T04:18:46.605Z,1128
2017-06-04T04:19:46.630Z,1136
2017-06-04T04:20:46.656Z,1156
2017-06-04T04:23:01.323Z,1204
2017-06-04T04:23:46.729Z,1220
2017-06-04T04:24:46.759Z,1244
2017-06-04T04:25:46.779Z,1276
2017-06-04T04:26:46.811Z,1304
2017-06-04T04:27:46.833Z,1332
2017-06-04T04:28:46.552Z,1356
2017-06-04T04:29:46.882Z,1388
2017-06-04T04:30:46.911Z,1424
2017-06-04T04:32:01.552Z,1492
2017-06-04T04:32:46.958Z,1544
2017-06-04T04:33:46.990Z,1620
2017-06-04T04:34:47.018Z,1676
2017-06-04T04:36:01.654Z,1728
2017-06-04T04:36:47.061Z,1756
2017-06-04T04:38:01.707Z,1784
2017-06-04T04:38:47.111Z,1804
2017-06-04T04:39:46.834Z,1824
2017-06-04T04:40:46.860Z,1836
2017-06-04T04:41:47.188Z,1828
2017-06-04T04:42:46.911Z,1776
2017-06-04T04:43:46.938Z,1684
2017-06-04T04:45:01.584Z,1560
2017-06-04T04:46:01.608Z,1480
2017-06-04T04:47:01.630Z,1408
2017-06-04T04:48:02.010Z,1352
2017-06-04T04:48:47.063Z,1320
2017-06-04T04:49:47.088Z,1284
2017-06-04T04:50:47.417Z,1272
2017-06-04T04:53:47.494Z,1252
2017-06-04T04:54:47.569Z,1252
2017-06-04T04:55:47.545Z,1248
2017-06-04T04:56:47.572Z,1236
2017-06-04T04:57:47.600Z,1216
2017-06-04T04:58:47.621Z,1200
2017-06-04T04:59:47.644Z,1180
2017-06-04T05:00:47.673Z,1176
2017-06-04T05:01:47.697Z,1184
2017-06-04T05:02:47.723Z,1208
2017-06-04T05:03:47.443Z,1240
2017-06-04T05:05:47.803Z,1272
2017-06-04T05:07:47.849Z,1268
2017-06-04T05:10:02.519Z,1256
2017-06-04T05:10:47.925Z,1256
2017-06-04T05:11:48.000Z,1256
2017-06-04T05:12:47.975Z,1260
2017-06-04T05:13:48.002Z,1264
2017-06-04T05:14:48.030Z,1268
2017-06-04T05:15:48.054Z,1280
2017-06-04T05:16:48.084Z,1300
2017-06-04T05:17:48.103Z,1328
2017-06-04T05:19:02.748Z,1380
2017-06-04T05:19:48.155Z,1420
2017-06-04T05:21:02.800Z,1492
2017-06-04T05:21:48.207Z,1528
2017-06-04T05:23:02.850Z,1580
2017-06-04T05:23:48.260Z,1612
2017-06-04T05:24:48.286Z,1648
2017-06-04T05:26:02.623Z,1684
2017-06-04T05:26:48.334Z,1700
2017-06-04T05:27:48.359Z,1708
2017-06-04T05:28:48.384Z,1696
2017-06-04T05:29:48.117Z,1676
2017-06-04T05:30:48.442Z,1664
2017-06-04T05:31:48.463Z,1672
2017-06-04T05:32:48.491Z,1704
2017-06-04T05:33:48.216Z,1752
2017-06-04T05:34:48.538Z,1780
2017-06-04T05:36:03.181Z,1768
2017-06-04T05:36:48.589Z,1732
2017-06-04T05:37:48.613Z,1688
2017-06-04T05:39:48.665Z,1616
2017-06-04T05:40:48.388Z,1612
2017-06-04T05:42:03.332Z,1628
2017-06-04T05:43:48.770Z,1640
2017-06-04T05:44:48.793Z,1628
2017-06-04T05:45:48.818Z,1612
2017-06-04T05:47:03.467Z,1616
2017-06-04T05:47:48.868Z,1644
2017-06-04T05:49:03.213Z,1684
2017-06-04T05:49:48.921Z,1704
2017-06-04T05:50:48.949Z,1740
2017-06-04T05:51:48.670Z,1784
2017-06-04T05:52:48.999Z,1812
2017-06-04T05:53:49.026Z,1836
2017-06-04T05:55:03.666Z,1860
2017-06-04T05:55:49.083Z,1876
2017-06-04T05:56:48.805Z,1916
2017-06-04T05:58:03.743Z,2012
2017-06-04T05:58:49.156Z,2088
2017-06-04T06:00:49.206Z,2272
2017-06-04T06:01:49.229Z,2316
2017-06-04T06:02:49.258Z,2332
2017-06-04T06:03:49.287Z,2340
2017-06-04T06:04:49.304Z,2344
2017-06-04T06:06:03.950Z,2360
2017-06-04T06:06:49.359Z,2376
2017-06-04T06:07:49.384Z,2404
2017-06-04T06:08:49.411Z,2424
2017-06-04T06:09:49.432Z,2428
2017-06-04T06:11:04.077Z,2400
2017-06-04T06:11:49.238Z,2400
2017-06-04T06:13:04.131Z,2420
2017-06-04T06:14:49.567Z,2508
2017-06-04T06:15:49.589Z,2544
2017-06-04T06:16:49.621Z,2556
2017-06-04T06:17:49.371Z,2552
2017-06-04T06:18:49.665Z,2540
2017-06-04T06:20:04.312Z,2508
2017-06-04T06:21:04.032Z,2484
2017-06-04T06:21:49.743Z,2468
2017-06-04T06:22:49.771Z,2448
2017-06-04T06:23:49.797Z,2432
2017-06-04T06:24:49.518Z,2416
2017-06-04T06:25:49.844Z,2404
2017-06-04T06:28:49.925Z,2324
2017-06-04T06:29:49.949Z,2296
2017-06-04T06:30:49.674Z,2248
2017-06-04T06:31:49.698Z,2164
2017-06-04T06:32:50.026Z,2072
2017-06-04T06:33:50.052Z,1984
2017-06-04T06:34:50.079Z,1920
2017-06-04T06:36:04.724Z,1868
2017-06-04T06:36:49.831Z,1860
2017-06-04T06:37:50.153Z,1868
2017-06-04T06:38:50.183Z,1896
2017-06-04T06:39:50.206Z,1936
2017-06-04T06:41:04.850Z,1988
2017-06-04T06:42:50.284Z,2080
2017-06-04T06:43:50.309Z,2116
2017-06-04T06:45:04.954Z,2152
2017-06-04T06:45:50.360Z,2168
2017-06-04T06:46:50.386Z,2188
2017-06-04T06:47:50.411Z,2220
2017-06-04T06:48:50.436Z,2248
2017-06-04T06:49:50.464Z,2292
2017-06-04T06:50:50.492Z,2320
2017-06-04T06:52:05.135Z,2356
2017-06-04T06:53:04.856Z,2376
2017-06-04T06:53:50.266Z,2376
2017-06-04T06:54:50.597Z,2304
2017-06-04T06:55:50.625Z,2192
2017-06-04T06:57:05.265Z,2032
2017-06-04T06:59:50.760Z,2176
2017-06-04T07:01:05.364Z,2248
2017-06-04T07:01:50.774Z,2232
2017-06-04T07:02:50.797Z,2256
2017-06-04T07:03:50.828Z,2244
2017-06-04T07:04:50.850Z,2180
2017-06-04T07:05:50.573Z,2156
2017-06-04T07:06:50.601Z,2240
2017-06-04T07:07:50.925Z,2336
2017-06-04T07:08:50.952Z,2452
2017-06-04T07:09:51.027Z,2388
2017-06-04T07:10:51.004Z,2208
2017-06-04T07:11:51.032Z,1980
2017-06-04T07:13:05.675Z,1736
2017-06-04T07:14:05.395Z,1564
2017-06-04T07:14:51.104Z,1580
2017-06-04T07:15:50.829Z,1624
2017-06-04T07:17:05.775Z,1568
2017-06-04T07:17:51.185Z,1516
2017-06-04T07:18:51.219Z,1536
2017-06-04T07:19:50.935Z,1684
2017-06-04T07:20:51.261Z,1760
2017-06-04T07:21:50.982Z,1784
2017-06-04T07:22:51.008Z,1916
2017-06-04T07:23:51.341Z,2088
2017-06-04T07:25:06.031Z,2288
2017-06-04T07:25:51.418Z,2352
2017-06-04T07:26:51.416Z,2428
2017-06-04T07:28:06.057Z,2572
2017-06-04T07:28:51.471Z,2608
2017-06-04T07:29:51.494Z,2656
2017-06-04T07:30:51.516Z,2728
2017-06-04T07:31:51.542Z,2876
2017-06-04T07:33:06.189Z,3052
2017-06-04T07:33:51.598Z,3140
2017-06-04T07:34:51.620Z,3168
2017-06-04T07:35:51.647Z,3196
2017-06-04T07:36:51.679Z,3100
2017-06-04T07:37:51.707Z,2948
2017-06-04T07:38:51.722Z,2884
2017-06-04T07:39:51.755Z,2880
2017-06-04T07:40:51.782Z,2896
2017-06-04T07:42:06.119Z,3060
2017-06-04T07:42:51.827Z,3200
2017-06-04T07:43:51.861Z,3392
2017-06-04T07:44:51.876Z,3552
2017-06-04T07:46:06.218Z,3612
2017-06-04T07:46:51.629Z,3568
2017-06-04T07:48:06.574Z,3596
2017-06-04T07:48:52.031Z,3624
2017-06-04T07:49:52.007Z,3628
2017-06-04T07:50:52.038Z,3612
2017-06-04T07:51:51.757Z,3600
2017-06-04T07:52:52.086Z,3692
2017-06-04T07:53:52.110Z,3724
2017-06-04T07:54:52.136Z,3636
2017-06-04T07:55:51.555Z,3684
2017-06-04T07:56:51.882Z,3760
2017-06-04T07:58:06.831Z,3760
2017-06-04T07:58:52.239Z,3752
2017-06-04T07:59:51.961Z,3788
2017-06-04T08:00:51.987Z,3924
2017-06-04T08:01:52.324Z,3936
2017-06-04T08:02:52.339Z,4084
2017-06-04T08:03:52.366Z,4196
2017-06-04T08:04:52.393Z,4092
2017-06-04T08:05:52.420Z,4260
2017-06-04T08:06:52.140Z,4272
2017-06-04T08:07:52.170Z,4208
2017-06-04T08:08:52.195Z,3776
2017-06-04T08:09:52.216Z,3356
2017-06-04T08:10:52.248Z,2752
2017-06-04T08:11:52.571Z,2300
2017-06-04T08:13:07.216Z,1784
2017-06-04T08:13:52.624Z,1500
2017-06-04T08:14:52.347Z,1380
2017-06-04T08:15:52.677Z,1608
2017-06-04T08:16:52.701Z,1936
2017-06-04T08:17:52.725Z,2328
2017-06-04T08:18:52.754Z,2844
2017-06-04T08:20:07.396Z,2992
2017-06-04T08:20:52.803Z,3032
2017-06-04T08:21:52.831Z,3528
2017-06-04T08:22:52.860Z,3660
2017-06-04T08:23:52.878Z,3700
2017-06-04T08:24:52.903Z,3608
2017-06-04T08:25:52.931Z,3604
2017-06-04T08:26:52.954Z,3800
2017-06-04T08:27:52.986Z,3900
2017-06-04T08:28:52.702Z,4004
2017-06-04T08:29:53.034Z,4188
2017-06-04T08:31:07.674Z,4548
2017-06-04T08:31:53.135Z,4940
2017-06-04T08:33:07.727Z,5172
2017-06-04T08:33:52.830Z,5456
2017-06-04T08:36:07.802Z,5968
2017-06-04T08:36:52.909Z,6028
2017-06-04T08:37:53.235Z,5924
2017-06-04T08:38:53.262Z,5736
2017-06-04T08:39:53.297Z,5668
2017-06-04T08:40:53.009Z,5788
2017-06-04T08:41:53.335Z,5668
2017-06-04T08:42:53.364Z,5536
2017-06-04T08:44:07.704Z,6036
2017-06-04T08:44:53.412Z,6360
2017-06-04T08:45:53.440Z,6712
2017-06-04T08:46:53.165Z,6980
2017-06-04T08:47:53.489Z,7360
2017-06-04T08:48:53.517Z,7556
2017-06-04T08:49:53.540Z,7656
2017-06-04T08:50:53.567Z,7704
2017-06-04T08:52:07.911Z,7692
2017-06-04T08:52:53.624Z,7764
2017-06-04T08:53:53.342Z,7832
2017-06-04T08:54:53.692Z,7884
2017-06-04T08:55:53.393Z,7868
2017-06-04T08:56:53.722Z,7804
2017-06-04T08:57:53.747Z,7792
2017-06-04T08:58:53.775Z,7876
2017-06-04T08:59:53.799Z,8148
2017-06-04T09:01:08.138Z,8228
2017-06-04T09:01:53.847Z,8160
2017-06-04T09:03:08.491Z,8168
2017-06-04T09:04:08.516Z,7784
2017-06-04T09:04:53.623Z,7320
2017-06-04T09:05:53.951Z,6868
2017-06-04T09:06:53.975Z,6124
2017-06-04T09:08:08.622Z,5440
2017-06-04T09:08:54.030Z,5152
2017-06-04T09:09:54.054Z,4812
2017-06-04T09:10:54.082Z,4512
2017-06-04T09:11:53.803Z,4316
2017-06-04T09:12:54.131Z,3844
2017-06-04T09:13:54.156Z,4008
2017-06-04T09:14:54.180Z,4536
2017-06-04T09:15:54.212Z,4552
2017-06-04T09:17:08.852Z,4560
2017-06-04T09:17:54.259Z,4924
2017-06-04T09:18:54.294Z,5180
2017-06-04T09:19:54.313Z,5380
2017-06-04T09:20:54.047Z,5396
2017-06-04T09:21:54.384Z,5648
2017-06-04T09:23:09.005Z,6024
2017-06-04T09:23:54.416Z,5892
2017-06-04T09:24:54.443Z,6200
2017-06-04T09:25:54.466Z,5620
2017-06-04T09:26:54.492Z,5704
2017-06-04T09:27:54.517Z,5720
2017-06-04T09:28:54.594Z,4908
2017-06-04T09:29:54.263Z,3828
2017-06-04T09:30:54.593Z,3664
2017-06-04T09:31:54.625Z,3152
2017-06-04T09:33:09.262Z,2648
2017-06-04T09:34:09.286Z,2092
2017-06-04T09:34:54.695Z,1744
2017-06-04T09:35:54.420Z,1232
2017-06-04T09:36:54.746Z,1084
2017-06-04T09:38:54.796Z,828
2017-06-04T09:39:54.852Z,848
2017-06-04T09:40:54.851Z,1052
2017-06-04T09:41:54.873Z,1264
2017-06-04T09:42:54.899Z,1496
2017-06-04T09:43:54.927Z,1532
2017-06-04T09:44:54.952Z,1484
2017-06-04T09:45:54.977Z,1604
2017-06-04T09:46:55.000Z,1684
2017-06-04T09:47:55.024Z,1792
2017-06-04T09:48:55.057Z,1724
2017-06-04T09:49:55.077Z,1816
2017-06-04T09:51:55.133Z,1800
2017-06-04T09:52:55.152Z,2044
2017-06-04T09:53:55.185Z,1908
2017-06-04T09:55:09.819Z,2060
2017-06-04T09:55:54.926Z,2064
2017-06-04T09:56:55.260Z,2280
2017-06-04T09:57:55.278Z,1948
2017-06-04T09:58:55.302Z,1876
2017-06-04T09:59:55.328Z,1828
2017-06-04T10:00:55.051Z,1716
2017-06-04T10:01:54.775Z,1416
2017-06-04T10:03:10.023Z,1108
2017-06-04T10:03:55.434Z,1084
2017-06-04T10:05:10.073Z,948
2017-06-04T10:05:55.481Z,832
2017-06-04T10:06:55.513Z,708
2017-06-04T10:07:55.230Z,692
2017-06-04T10:08:55.557Z,736
2017-06-04T10:09:55.580Z,776
2017-06-04T10:11:10.223Z,888
2017-06-04T10:11:55.334Z,1032
2017-06-04T10:12:55.655Z,1304
2017-06-04T10:13:55.429Z,1336
2017-06-04T10:14:55.405Z,2024
2017-06-04T10:15:55.477Z,2456
2017-06-04T10:16:55.147Z,2624
2017-06-04T10:17:55.779Z,2552
2017-06-04T10:18:55.806Z,2204
2017-06-04T10:20:10.448Z,1560
2017-06-04T10:20:55.856Z,1552
2017-06-04T10:21:55.879Z,1548
2017-06-04T10:24:55.956Z,2696
2017-06-04T10:25:55.983Z,2732
2017-06-04T10:27:10.620Z,3556
2017-06-04T10:27:56.029Z,4400
2017-06-04T10:29:10.679Z,4868
2017-06-04T10:29:55.774Z,4828
2017-06-04T10:30:56.105Z,4692
2017-06-04T10:31:56.126Z,3888
2017-06-04T10:32:55.852Z,3596
2017-06-04T10:33:55.878Z,3768
2017-06-04T10:34:56.203Z,3844
2017-06-04T10:36:10.847Z,3724
2017-06-04T10:36:56.254Z,3988
2017-06-04T10:37:55.980Z,4160
2017-06-04T10:40:56.358Z,4564
2017-06-04T10:41:56.075Z,4884
2017-06-04T10:43:11.020Z,5700
2017-06-04T10:43:56.430Z,5972
2017-06-04T10:44:56.453Z,6088
2017-06-04T10:45:56.479Z,5828
2017-06-04T10:46:56.504Z,5384
2017-06-04T10:47:56.528Z,4560
2017-06-04T10:48:56.556Z,4440
2017-06-04T10:50:11.200Z,5236
2017-06-04T10:50:56.604Z,4992
2017-06-04T10:51:56.628Z,4900
2017-06-04T10:52:56.658Z,5156
2017-06-04T10:54:10.690Z,4852
2017-06-04T10:56:11.348Z,4128
2017-06-04T10:56:56.754Z,3764
2017-06-04T10:58:11.398Z,4536
2017-06-04T10:58:56.807Z,4784
2017-06-04T10:59:56.527Z,4976
2017-06-04T11:00:57.007Z,4760
2017-06-04T11:01:56.884Z,4876
2017-06-04T11:02:56.602Z,5232
2017-06-04T11:03:56.931Z,5364
2017-06-04T11:04:56.955Z,4284
2017-06-04T11:05:56.987Z,4272
2017-06-04T11:06:57.005Z,4128
2017-06-04T11:07:57.033Z,4368
2017-06-04T11:09:56.780Z,6048
2017-06-04T11:10:57.112Z,5944
2017-06-04T11:11:57.132Z,6324
2017-06-04T11:12:57.161Z,6876
2017-06-04T11:13:57.187Z,5920
2017-06-04T11:14:56.903Z,5976
2017-06-04T11:15:57.238Z,6396
2017-06-04T11:16:56.954Z,8044
2017-06-04T11:17:57.284Z,9484
2017-06-04T11:18:57.308Z,8744
2017-06-04T11:19:57.030Z,8168
2017-06-04T11:20:57.358Z,8932
2017-06-04T11:21:57.082Z,8476
2017-06-04T11:22:56.802Z,9300
2017-06-04T11:23:57.134Z,8844
2017-06-04T11:24:57.157Z,8964
2017-06-04T11:27:57.541Z,6464
2017-06-04T11:30:12.219Z,7948
2017-06-04T11:30:57.611Z,8088
2017-06-04T11:31:57.334Z,7704
2017-06-04T11:32:57.661Z,6964
2017-06-04T11:33:57.692Z,6656
2017-06-04T11:35:12.337Z,7964
2017-06-04T11:35:57.744Z,7700
2017-06-04T11:36:57.764Z,7908
2017-06-04T11:37:57.790Z,6812
2017-06-04T11:38:57.819Z,7360
2017-06-04T11:40:12.459Z,6520
2017-06-04T11:40:57.867Z,6812
2017-06-04T11:41:57.892Z,6540
2017-06-04T11:43:57.945Z,5572
2017-06-04T11:44:57.664Z,5300
2017-06-04T11:46:12.612Z,5260
2017-06-04T11:46:58.019Z,4632
2017-06-04T11:47:58.043Z,4208
2017-06-04T11:48:58.070Z,4288
2017-06-04T11:49:58.100Z,4032
2017-06-04T11:50:58.121Z,4212
2017-06-04T11:51:58.197Z,4588
2017-06-04T11:52:58.192Z,4912
2017-06-04T11:53:58.216Z,5308
2017-06-04T11:54:58.222Z,5084
2017-06-04T11:56:12.867Z,4044
2017-06-04T11:56:58.274Z,3972
2017-06-04T11:57:58.299Z,3064
2017-06-04T12:00:58.379Z,3632
2017-06-04T12:02:13.019Z,3048
2017-06-04T12:02:58.430Z,3036
2017-06-04T12:03:58.451Z,2972
2017-06-04T12:04:58.481Z,2440
2017-06-04T12:05:58.506Z,2256
2017-06-04T12:06:58.527Z,2544
2017-06-04T12:07:58.250Z,2248
2017-06-04T12:08:58.578Z,1632
2017-06-04T12:09:58.298Z,1464
2017-06-04T12:10:58.634Z,1752
2017-06-04T12:11:58.653Z,1932
2017-06-04T12:12:58.687Z,2404
2017-06-04T12:13:58.730Z,2808
2017-06-04T12:14:58.426Z,4292
2017-06-04T12:15:58.761Z,5148
2017-06-04T12:16:58.777Z,5508
2017-06-04T12:18:13.421Z,5792
2017-06-04T12:18:58.526Z,5060
2017-06-04T12:19:58.856Z,6052
2017-06-04T12:21:58.905Z,8168
2017-06-04T12:22:58.930Z,7800
2017-06-04T12:24:13.577Z,6048
2017-06-04T12:24:58.987Z,5420
2017-06-04T12:25:58.703Z,5108
2017-06-04T12:26:59.030Z,5596
2017-06-04T12:28:13.673Z,6548
2017-06-04T12:28:59.083Z,7504
2017-06-04T12:29:59.107Z,9036
2017-06-04T12:30:59.133Z,9656
2017-06-04T12:33:13.799Z,10868
2017-06-04T12:33:58.924Z,11156
2017-06-04T12:34:59.231Z,10996
2017-06-04T12:35:59.258Z,9512
2017-06-04T12:36:59.289Z,9416
2017-06-04T12:37:59.308Z,9552
2017-06-04T12:38:59.337Z,8348
2017-06-04T12:39:59.359Z,10172
2017-06-04T12:41:59.412Z,10200
2017-06-04T12:42:59.137Z,10060
2017-06-04T12:44:59.518Z,9776
2017-06-04T12:45:59.522Z,9872
2017-06-04T12:46:59.538Z,9416
2017-06-04T12:47:59.562Z,8592
2017-06-04T12:48:59.592Z,8704
2017-06-04T12:49:59.312Z,9072
2017-06-04T12:50:59.336Z,9340
2017-06-04T12:51:59.668Z,9080
2017-06-04T12:52:59.388Z,8564
2017-06-04T12:53:59.716Z,8116
2017-06-04T12:54:59.746Z,6572
2017-06-04T12:56:14.388Z,3964
2017-06-04T12:56:59.796Z,3488
2017-06-04T12:57:59.823Z,3056
2017-06-04T12:58:59.545Z,3428
2017-06-04T12:59:59.927Z,3016
2017-06-04T13:00:59.597Z,3168
2017-06-04T13:01:59.921Z,3500
2017-06-04T13:02:59.645Z,3676
2017-06-04T13:03:59.974Z,3708
2017-06-04T13:05:14.615Z,3468
2017-06-04T13:06:00.025Z,3416
2017-06-04T13:07:00.051Z,3500
2017-06-04T13:08:00.076Z,4156
2017-06-04T13:09:00.100Z,4496
2017-06-04T13:09:59.821Z,4500
2017-06-04T13:10:59.849Z,4240
2017-06-04T13:12:00.182Z,4884
2017-06-04T13:13:00.203Z,5320
2017-06-04T13:14:00.226Z,5044
2017-06-04T13:15:00.266Z,5852
2017-06-04T13:16:00.326Z,7468
2017-06-04T13:17:00.306Z,9804
2017-06-04T13:19:00.353Z,11732
2017-06-04T13:20:00.079Z,12276
2017-06-04T13:21:15.024Z,12712
2017-06-04T13:22:00.433Z,12532
2017-06-04T13:23:00.153Z,11928
2017-06-04T13:24:00.178Z,11368
2017-06-04T13:25:00.514Z,10208
2017-06-04T13:26:00.533Z,9812
2017-06-04T13:27:00.560Z,8688
2017-06-04T13:28:00.584Z,8224
2017-06-04T13:29:00.612Z,6500
2017-06-04T13:30:00.332Z,5972
2017-06-04T13:31:15.280Z,5328
2017-06-04T13:32:00.736Z,5156
2017-06-04T13:34:00.741Z,4208
2017-06-04T13:35:00.460Z,4552
2017-06-04T13:36:00.491Z,5400
2017-06-04T13:37:15.185Z,5408
2017-06-04T13:38:00.540Z,5444
2017-06-04T13:39:00.868Z,5896
2017-06-04T13:40:00.594Z,6220
2017-06-04T13:41:00.617Z,7128
2017-06-04T13:42:00.643Z,9352
2017-06-04T13:43:00.669Z,10128
2017-06-04T13:44:00.744Z,9648
2017-06-04T13:45:00.720Z,8816
2017-06-04T13:46:15.364Z,7764
2017-06-04T13:47:00.774Z,7512
2017-06-04T13:48:00.801Z,7992
2017-06-04T13:49:01.130Z,7240
2017-06-04T13:50:15.774Z,7128
2017-06-04T13:52:01.209Z,6856
2017-06-04T13:53:15.849Z,6620
2017-06-04T13:54:01.258Z,5992
2017-06-04T13:55:00.675Z,5264
2017-06-04T13:56:01.313Z,4740
2017-06-04T13:57:01.338Z,5092
2017-06-04T13:58:01.057Z,8540
2017-06-04T13:59:00.780Z,8960
2017-06-04T14:00:01.132Z,10156
2017-06-04T14:01:00.883Z,11824
2017-06-04T14:02:01.164Z,12304
2017-06-04T14:03:01.191Z,12152
2017-06-04T14:04:01.213Z,13604
2017-06-04T14:05:01.242Z,12432
2017-06-04T14:06:01.884Z,9836
2017-06-04T14:07:01.596Z,9328
2017-06-04T14:08:15.964Z,9160
2017-06-04T14:10:01.376Z,7748
2017-06-04T14:11:01.702Z,7996
2017-06-04T14:12:02.030Z,8380
2017-06-04T14:13:16.376Z,7868
2017-06-04T14:14:01.474Z,7028
2017-06-04T14:15:01.504Z,6344
2017-06-04T14:16:01.831Z,6608
2017-06-04T14:17:16.173Z,4580
2017-06-04T14:18:01.580Z,3928
2017-06-04T14:19:01.910Z,3312
2017-06-04T14:20:01.938Z,3548
2017-06-04T14:21:01.658Z,3904
2017-06-04T14:22:02.019Z,4056
2017-06-04T14:23:02.018Z,3788
2017-06-04T14:25:02.066Z,3032
2017-06-04T14:26:01.794Z,3608
2017-06-04T14:27:02.118Z,4492
2017-06-04T14:28:16.769Z,6408
2017-06-04T14:29:02.171Z,7104
2017-06-04T14:30:02.207Z,7532
2017-06-04T14:31:16.844Z,7660
2017-06-04T14:32:02.250Z,6996
2017-06-04T14:33:01.971Z,7672
2017-06-04T14:34:16.918Z,9176
2017-06-04T14:35:02.385Z,9556